Impacts TAF Board INFO
FOR SITUATIONAL AWARENESS. NOT TO BE USED FOR FLIGHT PLANNING PURPOSES.
IDs:

KATL - Atlanta/Hartsfield-J, GA, US

Issued at 1745 UTC 18 Feb 2018
Updated at 1809 UTC 18 Feb 2018
Potential Impact None Slight Moderate High
Time1752Z 18/19Z 18/20Z 18/21Z 18/22Z 18/23Z 19/00Z 19/01Z 19/02Z 19/03Z 19/04Z 19/05Z 19/06Z 19/07Z>>
Type OBS PRVL PRVL PRVL PRVL PRVL PRVL PRVL PRVL PRVL PRVL PRVL PRVL PRVL
VIS 10 >6 >6 >6 >6 >6 >6 >6 6 6 6 6 6 6
CIG 250 35 25 25 25 25 25 25 9 9 9 9 9 9
Cover BKN BKN BKN BKN BKN BKN BKN BKN OVC OVC OVC OVC OVC OVC
FltCat VFR VFR MVFR MVFR MVFR MVFR MVFR MVFR IFR IFR IFR IFR IFR IFR
WX -- -- -- -- -- -- -- -- -DZ BR -DZ BR -DZ BR -DZ BR -DZ BR -DZ BR
WDir 160 80 120 120 120 120 120 120 110 110 110 110 110 110
WSpd 6 7 6 6 6 6 6 6 8 8 8 8 8 8
WGst -- -- -- -- -- -- -- -- -- -- -- -- -- --

Raw TAF
KATL 181745Z 1818/1924 08007KT P6SM BKN035
  FM182000 12006KT P6SM BKN025
  FM190200 11008KT 6SM -DZ BR OVC009
  FM190800 12007KT 3SM -DZ BR OVC006
  FM191500 14007KT P6SM BKN012
  FM192100 14009KT P6SM SCT030


Raw METAR
KATL 181752Z 16006KT 10SM FEW050 SCT100 BKN250 18/09 A3026 RMK AO2 SLP243 T01780094 10183 20089 58001
KATL 181652Z VRB04KT 10SM FEW030 SCT100 SCT250 16/08 A3027 RMK AO2 SLP247 T01610083
KATL 181552Z 00000KT 10SM FEW030 SCT070 SCT250 14/08 A3028 RMK AO2 SLP250 T01440078

METAR Board
Radar Display
Forecast Discussion

FOR SITUATIONAL AWARENESS. NOT TO BE USED FOR FLIGHT PLANNING PURPOSES.